Time;durP1;ratioP1;P1;durP2;ratioP2;P2;SDS_P1;SDS_P2;PMS_P1;PMS_P2;Temp;Humidity;BMP_temperature;BMP_pressure;BME280_temperature;BME280_humidity;BME280_pressure;Samples;Min_cycle;Max_cycle;Signal;HPM_P1;HPM_P2
2023/07/14 00:01:19;;;;;;;4.18;0.88;;;16.00;99.90;;;;;;4996028;28;19967;-71
2023/07/14 00:03:46;;;;;;;3.83;0.80;;;16.00;99.90;;;;;;4996493;28;20022;-71
2023/07/14 00:06:13;;;;;;;3.70;0.90;;;16.00;99.90;;;;;;5003062;28;20053;-72
2023/07/14 00:08:41;;;;;;;4.72;1.42;;;16.00;99.90;;;;;;5004177;28;20030;-71
2023/07/14 00:11:16;;;;;;;1.95;0.75;;;16.00;99.90;;;;;;5003992;28;20154;-72
2023/07/14 00:13:42;;;;;;;4.35;0.70;;;16.00;99.90;;;;;;5004722;28;20133;-72
2023/07/14 00:16:16;;;;;;;3.88;1.27;;;16.00;99.90;;;;;;5000361;28;20444;-71
2023/07/14 00:18:42;;;;;;;2.17;0.70;;;16.00;99.90;;;;;;4993381;28;20129;-72
2023/07/14 00:21:19;;;;;;;6.57;1.25;;;15.90;99.90;;;;;;5001710;28;20124;-71
2023/07/14 00:23:45;;;;;;;4.05;0.80;;;15.90;99.90;;;;;;4993150;28;20030;-71
2023/07/14 00:26:18;;;;;;;4.68;0.90;;;16.00;99.90;;;;;;4994916;28;20066;-71
2023/07/14 00:28:44;;;;;;;4.85;1.33;;;15.90;99.90;;;;;;4991893;28;20121;-71
2023/07/14 00:31:14;;;;;;;4.13;1.05;;;15.90;99.90;;;;;;5000392;28;20133;-71
2023/07/14 00:33:41;;;;;;;;;;;15.90;99.90;;;;;;5000478;28;20118;-72
2023/07/14 00:36:07;;;;;;;4.82;0.60;;;15.90;99.90;;;;;;4995571;28;19917;-73
2023/07/14 00:38:34;;;;;;;4.45;1.00;;;15.90;99.90;;;;;;4999241;28;20032;-72
2023/07/14 00:41:00;;;;;;;2.22;0.90;;;15.90;99.90;;;;;;4997939;28;20037;-71
2023/07/14 00:43:26;;;;;;;3.55;0.73;;;15.90;99.90;;;;;;4998258;28;20041;-71
2023/07/14 00:45:56;;;;;;;6.38;0.98;;;15.90;99.90;;;;;;4998388;28;20029;-72
2023/07/14 00:48:25;;;;;;;3.63;1.33;;;15.90;99.90;;;;;;4997309;28;20038;-71
2023/07/14 00:51:05;;;;;;;3.05;0.70;;;15.90;99.90;;;;;;4995720;28;20033;-70
2023/07/14 00:53:34;;;;;;;6.47;1.07;;;15.90;99.90;;;;;;4997487;28;20538;-69
2023/07/14 00:56:15;;;;;;;5.78;1.02;;;15.90;99.90;;;;;;4997615;28;20062;-73
2023/07/14 00:58:45;;;;;;;7.07;1.15;;;15.90;99.90;;;;;;4990923;28;20030;-71
2023/07/14 01:01:22;;;;;;;7.10;1.20;;;15.90;99.90;;;;;;4990474;28;20121;-71
2023/07/14 01:03:51;;;;;;;9.68;1.00;;;15.90;99.90;;;;;;4993967;28;20045;-71
2023/07/14 01:06:30;;;;;;;4.20;0.90;;;15.80;99.90;;;;;;4998263;28;20050;-71
2023/07/14 01:09:01;;;;;;;3.10;0.88;;;15.80;99.90;;;;;;4997388;28;20396;-72
2023/07/14 01:11:50;;;;;;;5.95;0.93;;;15.80;99.90;;;;;;4995859;28;20054;-71
2023/07/14 01:14:21;;;;;;;4.90;0.80;;;15.80;99.90;;;;;;4997379;28;20475;-71
2023/07/14 01:16:51;;;;;;;5.55;0.90;;;15.70;99.90;;;;;;4995140;28;20031;-73
2023/07/14 01:19:41;;;;;;;3.83;0.93;;;15.70;99.90;;;;;;4998955;28;20041;-71
2023/07/14 01:22:33;;;;;;;2.78;1.00;;;15.70;99.90;;;;;;5001269;28;20037;-72
2023/07/14 01:25:26;;;;;;;7.68;1.08;;;15.60;99.90;;;;;;5004477;28;20066;-73
2023/07/14 01:27:52;;;;;;;4.03;1.00;;;15.70;99.90;;;;;;4999395;28;20129;-71
2023/07/14 01:30:19;;;;;;;4.60;1.55;;;15.60;99.90;;;;;;5002502;28;20129;-73
2023/07/14 01:32:47;;;;;;;3.28;0.73;;;15.60;99.90;;;;;;4998589;28;20454;-69
2023/07/14 01:35:14;;;;;;;1.85;0.77;;;15.70;99.90;;;;;;5001802;28;20481;-70
2023/07/14 01:37:40;;;;;;;3.97;1.00;;;15.70;99.90;;;;;;5003846;28;20465;-71
2023/07/14 01:40:18;;;;;;;5.47;1.23;;;15.70;99.90;;;;;;5006576;28;20030;-70
2023/07/14 01:42:52;;;;;;;6.32;1.33;;;15.70;99.90;;;;;;5000133;28;20117;-70
2023/07/14 01:45:19;;;;;;;5.22;0.93;;;15.70;99.90;;;;;;5003221;28;20042;-71
2023/07/14 01:47:52;;;;;;;5.85;1.50;;;15.70;99.90;;;;;;5007114;28;20116;-71
2023/07/14 01:50:31;;;;;;;6.10;1.98;;;15.70;99.90;;;;;;5003144;28;20515;-71
2023/07/14 01:53:05;;;;;;;5.80;1.23;;;15.70;99.90;;;;;;5000763;28;20373;-72
2023/07/14 01:55:34;;;;;;;6.78;1.27;;;15.60;99.90;;;;;;4998684;28;20053;-72
2023/07/14 01:58:05;;;;;;;3.60;0.95;;;15.60;99.90;;;;;;4996517;28;20803;-72
2023/07/14 02:00:32;;;;;;;4.63;1.85;;;15.60;99.90;;;;;;5003343;28;20077;-73
2023/07/14 02:02:59;;;;;;;4.05;1.40;;;15.60;99.90;;;;;;4994230;28;20034;-72
2023/07/14 02:05:31;;;;;;;3.30;1.33;;;15.60;99.90;;;;;;5003620;28;20044;-70
2023/07/14 02:08:05;;;;;;;7.85;1.27;;;15.60;99.90;;;;;;4999471;28;20381;-72
2023/07/14 02:10:32;;;;;;;5.18;2.00;;;15.60;99.90;;;;;;5004208;28;20038;-72
2023/07/14 02:12:59;;;;;;;4.80;1.60;;;15.50;99.90;;;;;;4997193;28;20463;-72
2023/07/14 02:15:33;;;;;;;2.83;1.30;;;15.50;99.90;;;;;;5001796;28;20033;-72
2023/07/14 02:18:00;;;;;;;5.28;1.55;;;15.50;99.90;;;;;;5001016;28;20030;-70
2023/07/14 02:20:29;;;;;;;3.58;1.23;;;15.50;99.90;;;;;;5001467;28;20037;-72
2023/07/14 02:22:56;;;;;;;5.75;1.73;;;15.50;99.90;;;;;;4992316;28;20112;-72
2023/07/14 02:25:26;;;;;;;3.78;1.50;;;15.50;99.90;;;;;;4998743;28;20038;-71
2023/07/14 02:27:51;;;;;;;4.75;1.33;;;15.50;99.90;;;;;;4999896;28;20039;-70
2023/07/14 02:30:20;;;;;;;3.92;1.25;;;15.50;99.90;;;;;;4999358;28;20041;-71
2023/07/14 02:32:51;;;;;;;4.10;1.30;;;15.50;99.90;;;;;;4994085;28;20038;-71
2023/07/14 02:35:30;;;;;;;3.90;1.42;;;15.40;99.90;;;;;;4999137;28;20057;-71
2023/07/14 02:38:03;;;;;;;6.50;1.42;;;15.40;99.90;;;;;;5000586;28;20046;-72
2023/07/14 02:40:37;;;;;;;6.38;2.03;;;15.40;99.90;;;;;;4999935;28;20066;-71
2023/07/14 02:43:12;;;;;;;4.72;1.83;;;15.40;99.90;;;;;;4996463;28;20041;-72
2023/07/14 02:45:49;;;;;;;4.43;1.77;;;15.30;99.90;;;;;;4991564;28;20042;-70
2023/07/14 02:48:18;;;;;;;6.68;1.73;;;15.30;99.90;;;;;;5000575;28;20041;-70
2023/07/14 02:50:44;;;;;;;5.47;1.87;;;15.30;99.90;;;;;;4999452;28;20058;-74
2023/07/14 02:53:10;;;;;;;6.07;1.67;;;15.30;99.90;;;;;;4999845;28;20794;-71
2023/07/14 02:55:36;;;;;;;2.40;1.45;;;15.20;99.90;;;;;;4997125;28;20049;-71
2023/07/14 02:58:03;;;;;;;10.77;2.60;;;15.20;99.90;;;;;;4999739;28;20034;-70
2023/07/14 03:00:29;;;;;;;4.03;1.50;;;15.20;99.90;;;;;;5002091;28;20061;-71
2023/07/14 03:02:54;;;;;;;5.20;1.25;;;15.20;99.90;;;;;;4995606;28;20644;-71
2023/07/14 03:05:20;;;;;;;8.85;1.63;;;15.20;99.90;;;;;;5000144;28;20037;-72
2023/07/14 03:07:45;;;;;;;5.13;1.75;;;15.20;99.90;;;;;;4997512;28;20515;-70
2023/07/14 03:10:11;;;;;;;6.30;2.20;;;15.10;99.90;;;;;;5000100;28;20054;-71
2023/07/14 03:12:36;;;;;;;10.10;2.58;;;15.10;99.90;;;;;;4999658;28;20034;-71
2023/07/14 03:15:04;;;;;;;6.03;1.75;;;15.10;99.90;;;;;;4996840;28;20048;-71
2023/07/14 03:17:30;;;;;;;5.43;2.00;;;15.10;99.90;;;;;;4998200;28;20516;-71
2023/07/14 03:19:55;;;;;;;4.72;2.00;;;15.00;99.90;;;;;;4992754;28;20038;-74
2023/07/14 03:22:23;;;;;;;6.05;1.90;;;15.10;99.90;;;;;;5000017;28;20037;-71
2023/07/14 03:24:48;;;;;;;5.03;1.90;;;15.00;99.90;;;;;;4996777;28;20054;-71
2023/07/14 03:27:14;;;;;;;8.82;2.25;;;15.10;99.90;;;;;;5001042;28;20057;-72
2023/07/14 03:29:40;;;;;;;6.38;1.63;;;15.00;99.90;;;;;;4999422;28;20566;-71
2023/07/14 03:32:10;;;;;;;7.75;2.30;;;15.00;99.90;;;;;;4991800;28;20255;-71
2023/07/14 03:34:36;;;;;;;6.03;1.60;;;15.00;99.90;;;;;;4999770;28;20053;-72
2023/07/14 03:37:01;;;;;;;4.55;2.28;;;15.00;99.90;;;;;;4998111;28;20034;-71
2023/07/14 03:39:30;;;;;;;5.72;2.10;;;15.00;99.90;;;;;;4999844;28;20033;-72
2023/07/14 03:41:57;;;;;;;4.68;1.80;;;15.00;99.90;;;;;;4995963;28;20039;-71
2023/07/14 03:44:23;;;;;;;3.40;1.45;;;15.00;99.90;;;;;;4999934;28;20030;-73
2023/07/14 03:46:49;;;;;;;5.80;1.60;;;15.00;99.90;;;;;;4998521;28;20041;-73
2023/07/14 03:49:15;;;;;;;4.43;1.98;;;15.00;99.90;;;;;;4995644;28;20050;-71
2023/07/14 03:51:41;;;;;;;3.75;1.65;;;14.90;99.90;;;;;;5001894;28;20041;-71
2023/07/14 03:54:09;;;;;;;2.95;1.70;;;14.90;99.90;;;;;;4996494;28;20052;-71
2023/07/14 03:56:34;;;;;;;4.43;1.40;;;14.90;99.90;;;;;;5000128;28;20385;-72
2023/07/14 03:59:00;;;;;;;4.93;1.95;;;14.90;99.90;;;;;;4998576;28;20022;-70
2023/07/14 04:01:25;;;;;;;6.25;1.85;;;14.90;99.90;;;;;;4992364;28;20061;-72
2023/07/14 04:03:51;;;;;;;6.90;1.52;;;14.90;99.90;;;;;;4999173;28;20045;-71
2023/07/14 04:06:17;;;;;;;6.45;1.73;;;14.90;99.90;;;;;;4998653;28;20042;-71
2023/07/14 04:08:44;;;;;;;4.95;1.50;;;14.90;99.90;;;;;;5002026;28;20407;-71
2023/07/14 04:11:11;;;;;;;5.53;1.35;;;14.90;99.90;;;;;;4998352;28;20566;-71
2023/07/14 04:13:37;;;;;;;3.38;1.13;;;14.90;99.90;;;;;;4999337;28;20044;-72
2023/07/14 04:16:04;;;;;;;3.60;1.55;;;14.90;99.90;;;;;;4995986;28;20038;-73
2023/07/14 04:18:30;;;;;;;5.95;1.70;;;14.90;99.90;;;;;;4997210;28;20066;-70
2023/07/14 04:21:06;;;;;;;4.47;1.42;;;14.90;99.90;;;;;;4996099;28;20049;-74
2023/07/14 04:23:32;;;;;;;3.53;1.40;;;14.90;99.90;;;;;;4997500;28;20049;-72
2023/07/14 04:25:59;;;;;;;4.30;1.60;;;14.90;99.90;;;;;;4990595;28;20433;-70
2023/07/14 04:28:24;;;;;;;9.32;1.80;;;14.90;99.90;;;;;;4998298;28;20060;-73
2023/07/14 04:30:57;;;;;;;3.65;1.45;;;14.90;99.90;;;;;;5001535;28;20062;-71
2023/07/14 04:33:23;;;;;;;5.93;1.50;;;15.00;99.90;;;;;;4995081;28;20461;-71
2023/07/14 04:35:51;;;;;;;5.78;1.50;;;14.90;99.90;;;;;;4998629;28;20058;-71
2023/07/14 04:38:17;;;;;;;5.03;1.67;;;14.90;99.90;;;;;;4999737;28;20842;-71
2023/07/14 04:40:44;;;;;;;4.00;2.05;;;14.90;99.90;;;;;;4995968;28;20061;-71
2023/07/14 04:43:10;;;;;;;13.10;1.42;;;14.90;99.90;;;;;;5000676;28;20133;-72
2023/07/14 04:45:44;;;;;;;3.05;1.00;;;15.00;99.90;;;;;;4995606;28;20682;-71
2023/07/14 04:48:13;;;;;;;3.85;1.15;;;15.00;99.90;;;;;;4999176;28;20042;-71
2023/07/14 04:50:39;;;;;;;5.43;1.55;;;15.00;99.90;;;;;;4996976;28;20140;-71
2023/07/14 04:53:06;;;;;;;7.80;1.40;;;15.00;99.90;;;;;;4994786;28;20556;-71
2023/07/14 04:55:40;;;;;;;4.57;1.38;;;15.00;99.90;;;;;;5001928;28;20057;-70
2023/07/14 04:58:06;;;;;;;6.05;1.23;;;15.10;99.90;;;;;;4995762;28;20048;-71
2023/07/14 05:00:31;;;;;;;3.63;1.33;;;15.10;99.90;;;;;;4995382;28;20034;-70
2023/07/14 05:02:57;;;;;;;4.28;1.65;;;15.20;99.90;;;;;;4998980;28;20034;-70
2023/07/14 05:05:26;;;;;;;5.97;1.45;;;15.20;99.90;;;;;;4996098;28;20125;-71
2023/07/14 05:07:52;;;;;;;4.13;1.50;;;15.20;99.90;;;;;;4995988;28;20448;-72
2023/07/14 05:10:20;;;;;;;4.57;1.55;;;15.30;99.90;;;;;;4998446;28;20093;-70
2023/07/14 05:12:49;;;;;;;5.38;1.60;;;15.30;99.90;;;;;;4999612;28;20034;-72
2023/07/14 05:15:15;;;;;;;6.97;1.75;;;15.30;99.90;;;;;;4996124;28;20504;-70
2023/07/14 05:17:43;;;;;;;5.35;1.65;;;15.40;99.90;;;;;;4999618;28;20092;-69
2023/07/14 05:20:10;;;;;;;3.80;1.52;;;15.50;99.90;;;;;;4997540;28;20109;-71
2023/07/14 05:22:37;;;;;;;9.10;1.65;;;15.50;99.90;;;;;;4996945;28;20056;-70
2023/07/14 05:25:03;;;;;;;5.85;1.77;;;15.50;99.90;;;;;;5000660;28;20128;-71
2023/07/14 05:27:30;;;;;;;5.60;1.27;;;15.60;99.90;;;;;;4996673;28;20480;-71
2023/07/14 05:29:55;;;;;;;5.53;1.85;;;15.60;99.90;;;;;;4995882;28;20119;-71
2023/07/14 05:32:22;;;;;;;4.38;1.48;;;15.70;99.90;;;;;;4999880;28;20128;-71
2023/07/14 05:34:48;;;;;;;2.20;1.17;;;15.70;99.90;;;;;;4996323;28;20488;-71
2023/07/14 05:37:15;;;;;;;5.47;1.65;;;15.70;99.90;;;;;;4991311;28;20892;-70
2023/07/14 05:39:42;;;;;;;6.03;2.03;;;15.80;99.90;;;;;;5000614;28;20122;-71
2023/07/14 05:42:07;;;;;;;5.15;1.50;;;15.80;99.90;;;;;;4999882;28;20443;-71
2023/07/14 05:44:33;;;;;;;5.50;2.00;;;16.00;99.90;;;;;;4994127;28;20096;-71
2023/07/14 05:46:59;;;;;;;2.97;1.17;;;16.10;99.90;;;;;;4995302;28;20034;-73
2023/07/14 05:49:25;;;;;;;5.00;1.20;;;16.20;99.90;;;;;;4998605;28;20025;-71
2023/07/14 05:51:51;;;;;;;7.55;2.10;;;16.60;99.90;;;;;;4997407;28;20372;-70
2023/07/14 05:54:17;;;;;;;6.78;1.35;;;17.00;99.90;;;;;;4990876;28;20065;-72
2023/07/14 05:56:42;;;;;;;6.13;1.33;;;17.40;99.90;;;;;;4995968;28;20487;-72
2023/07/14 05:59:08;;;;;;;6.45;1.38;;;17.70;99.90;;;;;;4993583;28;20045;-72
2023/07/14 06:01:34;;;;;;;5.57;1.30;;;18.00;99.90;;;;;;4998360;28;20023;-71
2023/07/14 06:03:59;;;;;;;5.40;1.20;;;18.20;99.90;;;;;;5002005;28;20036;-70
2023/07/14 06:06:26;;;;;;;5.50;1.58;;;18.30;99.90;;;;;;5003121;28;20039;-72
2023/07/14 06:08:53;;;;;;;4.88;1.30;;;18.50;99.90;;;;;;5007019;28;20037;-72
2023/07/14 06:11:19;;;;;;;3.72;1.23;;;18.50;99.90;;;;;;4998374;28;20145;-72
2023/07/14 06:13:45;;;;;;;8.82;1.85;;;18.70;99.90;;;;;;5001508;28;20042;-74
2023/07/14 06:16:10;;;;;;;4.78;1.70;;;18.80;99.90;;;;;;5000789;28;20046;-71
2023/07/14 06:18:36;;;;;;;5.65;1.25;;;18.90;99.90;;;;;;5002911;28;20038;-71
2023/07/14 06:21:02;;;;;;;7.13;2.38;;;18.90;99.90;;;;;;5005063;28;20742;-71
2023/07/14 06:23:28;;;;;;;7.68;2.17;;;18.90;99.90;;;;;;4995461;28;20048;-70
2023/07/14 06:25:59;;;;;;;3.97;1.73;;;19.10;99.90;;;;;;4998319;28;20030;-72
2023/07/14 06:28:26;;;;;;;7.05;1.60;;;19.10;99.90;;;;;;4997077;28;20081;-72
2023/07/14 06:31:01;;;;;;;5.95;1.65;;;19.20;99.90;;;;;;5004673;28;20106;-72
2023/07/14 06:33:27;;;;;;;7.63;1.52;;;19.20;99.90;;;;;;4997466;28;20035;-72
2023/07/14 06:35:57;;;;;;;3.88;1.45;;;19.30;99.90;;;;;;5006078;28;20049;-72
2023/07/14 06:38:28;;;;;;;3.95;1.45;;;19.30;99.90;;;;;;4999740;28;20112;-71
2023/07/14 06:41:00;;;;;;;;;;;19.40;99.90;;;;;;4998730;28;20031;-70
2023/07/14 06:43:26;;;;;;;6.47;1.92;;;19.60;99.90;;;;;;4986421;28;20704;-70
2023/07/14 06:45:52;;;;;;;8.95;2.72;;;19.60;99.90;;;;;;5000259;28;20042;-70
2023/07/14 06:48:18;;;;;;;6.25;2.00;;;19.70;99.90;;;;;;5000447;28;20100;-71
2023/07/14 06:50:45;;;;;;;4.10;1.90;;;19.90;99.90;;;;;;5002036;28;20444;-71
2023/07/14 06:53:10;;;;;;;6.20;2.10;;;20.10;99.90;;;;;;4995309;28;20056;-70
2023/07/14 06:55:38;;;;;;;8.63;2.10;;;20.40;99.90;;;;;;5004852;28;20120;-72
2023/07/14 06:58:04;;;;;;;5.28;1.98;;;20.80;99.90;;;;;;5000323;28;20056;-70
2023/07/14 07:00:33;;;;;;;8.27;2.20;;;21.40;99.90;;;;;;4996624;28;20029;-72
2023/07/14 07:02:59;;;;;;;7.10;2.25;;;21.80;99.90;;;;;;4999621;28;20051;-73
2023/07/14 07:05:25;;;;;;;8.35;1.90;;;21.90;99.90;;;;;;4996791;28;20038;-70
2023/07/14 07:07:53;;;;;;;7.05;2.30;;;21.90;99.90;;;;;;4998232;28;20034;-72
2023/07/14 07:10:19;;;;;;;8.43;2.42;;;21.90;99.90;;;;;;4995704;28;20022;-73
2023/07/14 07:12:44;;;;;;;4.95;2.05;;;21.70;99.90;;;;;;4998044;28;20084;-72
2023/07/14 07:15:10;;;;;;;4.75;1.83;;;21.70;99.90;;;;;;4995548;28;20081;-71
2023/07/14 07:17:38;;;;;;;6.85;2.78;;;21.70;99.90;;;;;;4998317;28;20084;-71
2023/07/14 07:20:06;;;;;;;6.45;3.03;;;21.60;99.90;;;;;;4993352;28;20347;-72
2023/07/14 07:22:32;;;;;;;7.30;2.53;;;21.60;99.90;;;;;;5000478;28;20096;-72
2023/07/14 07:24:58;;;;;;;7.35;2.50;;;21.60;99.90;;;;;;4995543;28;20042;-71
2023/07/14 07:27:24;;;;;;;10.52;2.58;;;21.70;99.90;;;;;;5000479;28;20477;-71
2023/07/14 07:29:50;;;;;;;5.90;2.67;;;21.70;99.90;;;;;;4995687;28;20480;-73
2023/07/14 07:32:16;;;;;;;8.95;2.83;;;21.70;99.90;;;;;;5001073;28;20095;-73
2023/07/14 07:34:42;;;;;;;5.82;2.80;;;21.90;99.90;;;;;;4997802;28;20050;-71
2023/07/14 07:37:08;;;;;;;7.95;2.70;;;22.30;99.90;;;;;;4997097;28;20042;-71
2023/07/14 07:39:34;;;;;;;10.52;2.83;;;22.70;99.90;;;;;;4997772;28;20045;-72
2023/07/14 07:42:00;;;;;;;10.60;3.55;;;22.90;99.90;;;;;;4993853;28;20500;-72
2023/07/14 07:44:25;;;;;;;5.20;2.17;;;23.00;99.90;;;;;;4997960;28;20153;-72
2023/07/14 07:46:51;;;;;;;7.70;2.80;;;23.70;99.90;;;;;;4998436;28;20033;-71
2023/07/14 07:49:17;;;;;;;8.32;2.47;;;24.30;99.90;;;;;;4999180;28;20045;-71
2023/07/14 07:51:42;;;;;;;4.85;2.63;;;24.30;99.90;;;;;;4999788;28;20029;-71
2023/07/14 07:54:08;;;;;;;4.70;2.22;;;24.50;99.90;;;;;;4995000;28;20042;-72
2023/07/14 07:56:34;;;;;;;10.48;2.95;;;24.30;99.90;;;;;;4993774;28;20041;-73
2023/07/14 07:58:59;;;;;;;8.45;2.55;;;24.10;99.90;;;;;;4997439;28;20140;-72
2023/07/14 08:01:26;;;;;;;5.78;2.25;;;23.60;99.90;;;;;;4987306;28;20066;-70
2023/07/14 08:03:52;;;;;;;6.47;2.45;;;23.20;99.90;;;;;;4992865;28;20476;-73
2023/07/14 08:06:18;;;;;;;9.30;2.83;;;23.20;99.90;;;;;;4999345;28;20045;-72
2023/07/14 08:08:45;;;;;;;6.65;2.80;;;23.70;99.90;;;;;;4993513;28;20029;-71
2023/07/14 08:11:12;;;;;;;8.82;3.17;;;23.90;99.90;;;;;;4993938;28;20726;-71
2023/07/14 08:13:38;;;;;;;7.25;2.85;;;24.10;99.90;;;;;;4993630;28;20118;-71
2023/07/14 08:16:04;;;;;;;5.70;2.40;;;24.00;99.90;;;;;;4998945;28;20117;-72
2023/07/14 08:18:30;;;;;;;8.30;2.05;;;23.80;99.90;;;;;;4998809;28;20038;-73
2023/07/14 08:20:56;;;;;;;8.38;2.78;;;23.50;99.90;;;;;;4999253;28;20061;-70
2023/07/14 08:23:23;;;;;;;6.70;2.38;;;23.40;99.90;;;;;;4996452;28;20122;-72
2023/07/14 08:26:00;;;;;;;10.98;2.53;;;23.30;99.90;;;;;;4999579;28;20066;-73
2023/07/14 08:28:27;;;;;;;12.40;3.45;;;23.30;99.90;;;;;;4993480;28;20046;-72
2023/07/14 08:30:57;;;;;;;8.02;2.90;;;23.30;99.90;;;;;;4994322;28;20519;-72
2023/07/14 08:33:24;;;;;;;7.72;2.30;;;23.00;99.90;;;;;;4997302;28;20412;-72
2023/07/14 08:35:50;;;;;;;7.97;2.72;;;22.90;99.90;;;;;;5002178;28;20034;-72
2023/07/14 08:38:16;;;;;;;8.52;2.67;;;22.90;99.90;;;;;;4995109;28;20125;-72
2023/07/14 08:40:49;;;;;;;5.75;2.47;;;22.80;99.90;;;;;;5000754;28;20113;-71
2023/07/14 08:43:33;;;;;;;6.97;2.83;;;22.80;99.90;;;;;;4991813;28;20034;-71
2023/07/14 08:46:21;;;;;;;17.45;2.72;;;22.70;99.90;;;;;;4989314;28;20415;-73
2023/07/14 08:49:09;;;;;;;8.57;2.55;;;22.60;99.90;;;;;;4997986;28;20549;-71
2023/07/14 08:51:44;;;;;;;6.90;2.00;;;22.60;99.90;;;;;;4995671;28;20045;-71
2023/07/14 08:54:19;;;;;;;6.10;2.50;;;22.60;99.90;;;;;;4994251;28;20432;-73
2023/07/14 08:56:46;;;;;;;4.57;1.90;;;22.70;99.90;;;;;;4990784;28;20038;-72
2023/07/14 08:59:18;;;;;;;8.35;2.58;;;22.70;99.90;;;;;;4989677;28;20049;-71
2023/07/14 09:01:53;;;;;;;6.20;2.35;;;22.90;99.90;;;;;;4990464;28;20037;-71
2023/07/14 09:04:29;;;;;;;9.85;2.83;;;22.90;99.90;;;;;;4987196;28;20061;-72
2023/07/14 09:06:55;;;;;;;6.30;2.28;;;23.00;99.90;;;;;;4994941;28;20034;-71
2023/07/14 09:09:33;;;;;;;6.90;1.80;;;23.10;99.90;;;;;;4993275;28;20084;-73
2023/07/14 09:12:02;;;;;;;5.53;2.25;;;23.10;99.90;;;;;;4999735;28;20030;-72
2023/07/14 09:14:55;;;;;;;5.53;1.98;;;23.20;99.90;;;;;;4994374;28;20060;-72
2023/07/14 09:17:47;;;;;;;8.60;2.25;;;23.30;99.90;;;;;;4987830;28;20027;-71
2023/07/14 09:20:34;;;;;;;4.70;1.75;;;23.30;99.90;;;;;;4991386;28;20729;-70
2023/07/14 09:23:35;;;;;;;5.18;2.00;;;23.40;99.90;;;;;;4997403;28;20492;-71
2023/07/14 09:26:19;;;;;;;7.30;2.60;;;23.50;99.90;;;;;;4982099;28;20060;-73
2023/07/14 09:28:49;;;;;;;5.88;2.13;;;23.40;99.90;;;;;;4991031;28;20112;-70
2023/07/14 09:31:31;;;;;;;9.07;2.20;;;23.60;99.90;;;;;;4996745;28;20050;-73
2023/07/14 09:33:59;;;;;;;7.28;2.47;;;23.70;99.90;;;;;;4989402;28;20053;-70
2023/07/14 09:36:27;;;;;;;5.15;2.08;;;23.60;99.90;;;;;;4995339;28;20038;-71
2023/07/14 09:38:57;;;;;;;7.65;1.90;;;23.80;99.90;;;;;;4998076;28;20038;-73
2023/07/14 09:41:25;;;;;;;8.50;2.07;;;23.90;99.90;;;;;;4997739;28;20821;-71
2023/07/14 09:43:57;;;;;;;5.82;2.40;;;23.80;99.40;;;;;;4993438;28;20026;-71
2023/07/14 09:46:22;;;;;;;5.28;2.25;;;23.90;99.90;;;;;;5001350;28;20041;-72
2023/07/14 09:48:52;;;;;;;5.88;1.95;;;24.00;99.80;;;;;;5001608;28;20034;-73
2023/07/14 09:51:24;;;;;;;6.40;1.73;;;24.00;99.90;;;;;;4995270;28;20038;-71
2023/07/14 09:54:07;;;;;;;3.60;1.35;;;24.00;99.90;;;;;;5000121;28;20495;-72
2023/07/14 09:56:42;;;;;;;7.18;1.80;;;24.00;99.00;;;;;;5002505;28;20042;-72
2023/07/14 09:59:22;;;;;;;3.65;1.58;;;23.90;99.00;;;;;;5002079;28;20053;-72
2023/07/14 10:01:56;;;;;;;5.10;1.65;;;23.90;99.00;;;;;;4995837;28;20114;-72
2023/07/14 10:04:28;;;;;;;5.95;1.60;;;23.90;98.70;;;;;;4997845;28;20022;-71
2023/07/14 10:06:54;;;;;;;6.28;1.77;;;24.10;98.90;;;;;;5002021;28;20034;-69
2023/07/14 10:09:22;;;;;;;4.35;1.65;;;24.30;98.40;;;;;;4997780;28;20376;-72
2023/07/14 10:11:50;;;;;;;6.93;1.77;;;24.30;98.60;;;;;;5003727;28;20033;-70
2023/07/14 10:14:26;;;;;;;3.70;1.20;;;24.40;98.00;;;;;;5001096;28;20138;-70
2023/07/14 10:16:56;;;;;;;6.18;1.50;;;24.50;98.10;;;;;;4999866;28;20026;-71
2023/07/14 10:19:33;;;;;;;2.80;1.30;;;24.60;97.90;;;;;;5000745;28;20087;-71
2023/07/14 10:22:09;;;;;;;4.65;0.93;;;24.50;97.60;;;;;;4998670;28;20027;-71
2023/07/14 10:24:37;;;;;;;2.47;1.25;;;24.50;97.70;;;;;;5000575;28;20577;-71
2023/07/14 10:27:19;;;;;;;4.18;1.13;;;24.40;97.10;;;;;;4998046;28;20361;-71
2023/07/14 10:29:58;;;;;;;4.60;1.20;;;24.20;96.40;;;;;;4992441;28;20110;-71
2023/07/14 10:32:32;;;;;;;2.08;0.98;;;24.00;96.10;;;;;;4998468;28;20042;-71
2023/07/14 10:35:02;;;;;;;4.03;0.98;;;23.80;96.50;;;;;;5001426;28;20092;-70
2023/07/14 10:37:35;;;;;;;2.15;1.10;;;23.60;97.50;;;;;;4999475;28;20142;-71
2023/07/14 10:40:17;;;;;;;3.75;1.35;;;23.50;97.50;;;;;;4999196;28;20038;-70
2023/07/14 10:43:04;;;;;;;4.32;1.48;;;23.40;97.60;;;;;;4994106;28;20049;-70
2023/07/14 10:45:35;;;;;;;6.38;2.38;;;23.30;98.10;;;;;;4999117;28;20058;-71
2023/07/14 10:48:15;;;;;;;5.05;1.67;;;23.00;98.20;;;;;;4997299;28;20038;-70
2023/07/14 10:50:51;;;;;;;3.13;1.55;;;23.00;98.00;;;;;;4993892;28;20030;-72
2023/07/14 10:53:45;;;;;;;3.50;1.45;;;22.80;98.30;;;;;;4997843;28;20518;-70
2023/07/14 10:56:23;;;;;;;3.45;1.45;;;22.70;98.70;;;;;;4993817;28;20063;-70
2023/07/14 10:58:55;;;;;;;4.55;1.50;;;22.70;98.80;;;;;;4996312;28;20038;-71
2023/07/14 11:01:36;;;;;;;6.50;1.63;;;22.70;99.60;;;;;;4998019;28;20443;-71
2023/07/14 11:04:27;;;;;;;4.18;1.55;;;22.80;98.60;;;;;;5000389;28;20044;-70
2023/07/14 11:06:55;;;;;;;5.47;1.23;;;22.80;98.10;;;;;;4997359;28;20126;-71
2023/07/14 11:09:20;;;;;;;6.55;1.40;;;22.80;97.90;;;;;;4996592;28;20400;-70
2023/07/14 11:12:09;;;;;;;3.90;1.15;;;22.70;98.70;;;;;;4999991;28;20034;-69
2023/07/14 11:15:04;;;;;;;7.32;1.60;;;22.60;98.80;;;;;;4988237;28;20636;-70
2023/07/14 11:17:57;;;;;;;3.20;1.15;;;22.40;98.60;;;;;;4997465;28;20497;-69
2023/07/14 11:20:26;;;;;;;5.28;1.20;;;22.30;98.00;;;;;;5007569;28;20037;-70
2023/07/14 11:23:25;;;;;;;4.40;1.13;;;22.30;99.40;;;;;;4991939;28;20034;-68
2023/07/14 11:26:00;;;;;;;6.90;1.27;;;22.40;99.40;;;;;;4996259;28;20041;-69
2023/07/14 11:28:44;;;;;;;5.55;1.20;;;22.30;99.30;;;;;;4997855;28;20027;-71
2023/07/14 11:31:27;;;;;;;7.18;1.10;;;22.50;99.40;;;;;;4981398;28;20037;-72
2023/07/14 11:34:17;;;;;;;4.78;1.20;;;22.70;98.40;;;;;;5000468;28;20120;-72
2023/07/14 11:36:50;;;;;;;;;;;22.60;98.20;;;;;;4999452;28;20615;-70
2023/07/14 11:39:39;;;;;;;3.47;1.00;;;22.70;98.40;;;;;;4987836;28;19918;-70
2023/07/14 11:42:16;;;;;;;4.05;1.10;;;22.70;98.50;;;;;;4992925;28;20521;-70
2023/07/14 11:44:43;;;;;;;4.47;1.00;;;22.60;98.60;;;;;;4998934;28;20363;-69
2023/07/14 11:47:20;;;;;;;4.50;1.20;;;22.40;97.60;;;;;;4998556;28;20046;-69
2023/07/14 11:49:50;;;;;;;3.83;1.02;;;22.30;98.00;;;;;;5009700;28;20033;-70
2023/07/14 11:52:25;;;;;;;1.17;0.85;;;22.40;98.40;;;;;;4999360;28;20567;-71
2023/07/14 11:55:06;;;;;;;2.08;1.02;;;22.50;99.30;;;;;;4991163;28;20049;-71
2023/07/14 11:57:49;;;;;;;3.47;1.58;;;22.80;97.80;;;;;;4996515;28;20042;-71
2023/07/14 12:00:23;;;;;;;3.25;1.10;;;22.90;98.40;;;;;;4984497;28;20042;-70
2023/07/14 12:02:59;;;;;;;4.13;1.25;;;23.00;98.10;;;;;;4997011;28;20125;-70
2023/07/14 12:05:31;;;;;;;1.75;0.90;;;23.20;98.00;;;;;;4994312;28;20092;-72
2023/07/14 12:08:07;;;;;;;2.53;0.98;;;23.40;98.40;;;;;;4997238;28;20054;-72
2023/07/14 12:10:38;;;;;;;4.65;1.42;;;23.80;98.40;;;;;;4992619;28;20088;-72
2023/07/14 12:13:38;;;;;;;3.75;1.48;;;23.90;97.20;;;;;;4991910;28;20149;-71
2023/07/14 12:16:13;;;;;;;3.60;1.55;;;24.00;97.00;;;;;;4997010;28;20027;-72
2023/07/14 12:19:02;;;;;;;3.03;1.17;;;24.20;97.00;;;;;;4991822;28;20435;-70
2023/07/14 12:21:27;;;;;;;1.58;1.10;;;24.30;95.20;;;;;;4992053;28;20060;-69
2023/07/14 12:23:58;;;;;;;5.68;1.50;;;24.30;95.10;;;;;;4990505;28;20499;-69
2023/07/14 12:26:23;;;;;;;2.72;1.40;;;24.20;95.00;;;;;;4992742;28;20049;-70
2023/07/14 12:28:49;;;;;;;4.13;1.80;;;24.10;95.00;;;;;;4997612;28;20040;-72
2023/07/14 12:31:17;;;;;;;4.07;1.33;;;24.20;94.90;;;;;;4991811;28;20134;-70
2023/07/14 12:33:45;;;;;;;3.05;1.27;;;24.20;94.70;;;;;;4988599;28;20085;-70
2023/07/14 12:36:19;;;;;;;5.43;1.55;;;24.30;95.90;;;;;;4996636;28;20041;-70
2023/07/14 12:38:49;;;;;;;3.35;1.35;;;24.30;96.20;;;;;;4993901;28;20030;-71
2023/07/14 12:41:17;;;;;;;3.30;1.33;;;24.30;95.70;;;;;;4988086;28;20034;-70
2023/07/14 12:43:46;;;;;;;3.33;1.50;;;24.40;95.10;;;;;;4996006;28;20034;-71
2023/07/14 12:46:24;;;;;;;2.95;1.15;;;24.30;95.20;;;;;;4997170;28;20038;-71
2023/07/14 12:48:58;;;;;;;1.90;0.95;;;24.40;94.70;;;;;;4994123;28;20045;-71
2023/07/14 12:51:24;;;;;;;4.22;1.00;;;24.40;95.10;;;;;;4994470;28;20042;-72
2023/07/14 12:54:02;;;;;;;3.42;0.90;;;24.30;94.80;;;;;;4994932;28;20460;-70
2023/07/14 12:56:30;;;;;;;4.00;1.02;;;24.20;94.80;;;;;;4986427;28;20038;-69
2023/07/14 12:58:58;;;;;;;2.60;0.90;;;24.10;94.00;;;;;;5001253;28;20383;-69
2023/07/14 13:01:23;;;;;;;1.83;0.88;;;24.10;94.30;;;;;;4998565;28;20044;-69
2023/07/14 13:03:49;;;;;;;1.98;1.00;;;24.10;95.30;;;;;;4994579;28;20396;-73
2023/07/14 13:06:17;;;;;;;1.98;1.00;;;24.20;95.50;;;;;;4997407;28;20569;-73